KMCD

Mackinac Island Airport

Mackinac Island, Michigan, USA
METAR KMCD 211415Z AUTO 33004KT 10SM SCT013 01/M04 A3021 RMK AO2 T00071042
Observed Flight Rules
Oct-21 @ 14:15 UTC (23 minutes ago) Visual Flight Rules
Wind Visibility Clouds
330° at 4 knots 10 miles
  • Scattered at 1,300' AGL
Temperatures Readings
Current 1°C / 34°F
Dewpoint -4°C / 25°F
Humidity 70%
Altimeter 30.21" Hg
Pressure 1023 hPa
Elevation 226
METAR KMCD 211415Z AUTO 33004KT 10SM SCT013 01/M04 A3021 RMK AO2 T00071042
Observed Flight Rules
Oct-21 @ 14:15 UTC
(23 minutes ago)
VFR
Wind Visibility
330° at 4 knots 10 miles
Clouds
  • Scattered at 1,300' AGL
Temperature Dewpoint
1°C / 34°F -4°C / 25°F
Humidity Altimeter Pressure
70% 30.21" Hg 1023 hPa